Report METAR

 

LIBG - Grottaglie(Civ/A, Italy
Distanza dalla stazione: NE 13km
Dati ricevuti: 02/12/2020 19:50
DATI Obsoleti
Poche nubi
Poche nubi
 Vento da SSE
Vento: SSE 22 km/h
Temperatura: 15°C
P.to Rugiada: 11°C
Umidità: 77%
Barometro: 1010 hPa
Nuvole: Poche nubi
Visibilità: 10 km
Dettagli nuvole: Poche nubi 610 m
2020/12/02 18:50 LIBG 021850Z 15012KT 9999 FEW020 15/11 Q1010
LIBH - Marina Di Ginosa, Italy
Distanza dalla stazione: O 33km
Dati ricevuti: 02/12/2020 18:55
DATI Obsoleti
Parz. nuvoloso
Parz. nuvoloso
 Vento da SSE
Vento: SSE 30 km/h
Temperatura: 19°C
P.to Rugiada: 15°C
Umidità: 78%
Barometro: 1008 hPa
Nuvole: Parz. nuvoloso
Visibilità: 10 km
Dettagli nuvole: Parz. nuvoloso 762 m
2020/12/02 17:55 LIBH 021755Z 16016KT 9999 SCT025 19/15 Q1008 RMK BKN BKN200 QUK / QUL / VIS MAR 20 KM VIS MIN 9999
 
LIBV - Gioia Del Colle, Italy
Distanza dalla stazione: NO 45km
Dati ricevuti: 03/12/2020 03:55
Foschia, Parz. nuvoloso
Foschia, Parz. nuvoloso
 Vento da SSE
Vento: SSE 33 km/h
Temperatura: 15°C
P.to Rugiada: 13°C
Umidità: 88%
Barometro: 1007 hPa
Riassunto: Foschia
Nuvole: Parz. nuvoloso
Visibilità: 5 km
Dettagli nuvole: Molto nuvoloso 122 m
Parz. nuvoloso 305 m
2020/12/03 02:55 LIBV 030255Z 15018KT 5000 BR BKN004 SCT010 15/13 Q1007 RMK OVC VIS MIN 5000 WIND THR32 17016KT WIND THR14 /////KT YLO
LIBR - Brindisi/Casale, Italy
Distanza dalla stazione: ENE 62km
Dati ricevuti: 03/12/2020 03:50
Molto nuvoloso
Molto nuvoloso
 Vento da SE
Vento: SE 26 km/h
Temperatura: 15°C
P.to Rugiada: 12°C
Umidità: 82%
Barometro: 1009 hPa
Nuvole: Molto nuvoloso
Visibilità: 10 km
Dettagli nuvole: Molto nuvoloso 914 m
Molto nuvoloso 4877 m
2020/12/03 02:50 LIBR 030250Z AUTO 14014KT 9999 BKN030/// BKN160/// 15/12 Q1009
 
LIBN - Lecce (it-Afb), Italy
Distanza dalla stazione: ESE 79km
Dati ricevuti: 03/12/2020 03:55
Piccolo temporale, Pioggia, Parz. nuvoloso
Piccolo temporale, Pioggia, Parz. nuvoloso
 Vento da SE
Vento: SE 19 km/h
Temperatura: 14°C
P.to Rugiada: 13°C
Umidità: 94%
Barometro: 1010 hPa
Riassunto: Piccolo temporale, Pioggia
Nuvole: Parz. nuvoloso
Visibilità: 10 km
Dettagli nuvole: Poche nubi 610 m
Parz. nuvoloso 762 m
2020/12/03 02:55 LIBN 030255Z 14010KT 9999 -TSRA FEW020CB SCT025 14/13 Q1010 RMK OVC BKN060 VIS MIN 9999 WIND THR14 14011KT WIND THR32 14012KT BLU
LIBD - Bari/Palese Macc, Italy
Distanza dalla stazione: NNO 85km
Dati ricevuti: 03/12/2020 03:50
Sereno
Sereno
 Vento da SSE
Vento: SSE 7 km/h
Temperatura: 16°C
P.to Rugiada: 12°C
Umidità: 77%
Barometro: 1006 hPa
Riassunto: Sereno
Visibilità: superiore a 10 km
2020/12/03 02:50 LIBD 030250Z 16004KT 130V200 CAVOK 16/12 Q1006